Time;durP1;ratioP1;P1;durP2;ratioP2;P2;SDS_P1;SDS_P2;PMS_P1;PMS_P2;Temp;Humidity;BMP_temperature;BMP_pressure;BME280_temperature;BME280_humidity;BME280_pressure;Samples;Min_cycle;Max_cycle;Signal;HPM_P1;HPM_P2
2023/08/01 00:02:18;;;;;;;11.45;7.43;;;16.90;99.90;;;;;;4975397;28;20113;-87
2023/08/01 00:04:44;;;;;;;9.55;4.75;;;17.00;99.90;;;;;;4975016;28;20039;-87
2023/08/01 00:07:09;;;;;;;13.65;8.30;;;16.90;99.90;;;;;;4975097;28;20044;-87
2023/08/01 00:09:35;;;;;;;12.65;8.23;;;16.90;99.90;;;;;;4959258;28;20053;-86
2023/08/01 00:12:00;;;;;;;9.35;4.57;;;16.90;99.90;;;;;;4974777;28;20045;-87
2023/08/01 00:14:26;;;;;;;13.25;8.23;;;16.90;99.90;;;;;;4958201;28;20504;-86
2023/08/01 00:16:52;;;;;;;8.85;4.38;;;16.90;99.90;;;;;;4973409;28;20125;-87
2023/08/01 00:19:18;;;;;;;13.55;9.05;;;16.80;99.90;;;;;;4958344;28;20117;-86
2023/08/01 00:21:44;;;;;;;15.23;8.60;;;16.80;99.90;;;;;;4974873;28;20034;-86
2023/08/01 00:24:09;;;;;;;11.00;6.22;;;16.90;99.90;;;;;;4958317;28;20084;-86
2023/08/01 00:26:35;;;;;;;12.68;5.30;;;16.90;99.90;;;;;;4974340;28;20030;-86
2023/08/01 00:29:01;;;;;;;12.55;8.77;;;16.80;99.90;;;;;;4973235;28;20038;-87
2023/08/01 00:31:26;;;;;;;12.77;8.98;;;16.80;99.90;;;;;;4974278;28;20038;-87
2023/08/01 00:33:52;;;;;;;13.75;9.02;;;16.90;99.90;;;;;;4974096;28;20034;-86
2023/08/01 00:36:18;;;;;;;12.80;9.68;;;16.90;99.90;;;;;;4973260;28;20193;-87
2023/08/01 00:38:43;;;;;;;15.45;9.95;;;16.90;99.90;;;;;;4973847;28;20042;-87
2023/08/01 00:41:10;;;;;;;14.55;10.10;;;16.90;99.90;;;;;;4973620;28;20451;-86
2023/08/01 00:43:35;;;;;;;16.30;9.73;;;16.90;99.90;;;;;;4974079;28;20042;-87
2023/08/01 00:46:04;;;;;;;11.82;6.20;;;16.90;99.90;;;;;;4973357;28;20035;-86
2023/08/01 00:48:30;;;;;;;17.92;9.90;;;16.80;99.90;;;;;;4972893;28;20073;-86
2023/08/01 00:50:59;;;;;;;15.05;9.15;;;16.80;99.90;;;;;;4973328;28;20054;-86
2023/08/01 00:53:25;;;;;;;10.10;5.15;;;16.80;99.90;;;;;;4973771;28;20105;-86
2023/08/01 00:55:55;;;;;;;9.18;5.00;;;16.80;99.90;;;;;;4957138;28;20081;-86
2023/08/01 00:58:20;;;;;;;14.48;8.60;;;16.70;99.90;;;;;;4956365;28;20529;-87
2023/08/01 01:00:46;;;;;;;13.45;8.00;;;16.70;99.90;;;;;;4972684;28;20046;-87
2023/08/01 01:03:13;;;;;;;14.65;8.48;;;16.80;99.90;;;;;;4973048;28;20030;-87
2023/08/01 01:05:43;;;;;;;12.80;4.60;;;16.80;99.90;;;;;;4974369;28;20293;-86
2023/08/01 01:08:08;;;;;;;12.10;8.48;;;16.70;99.90;;;;;;4978773;28;20092;-86
2023/08/01 01:10:34;;;;;;;12.82;8.10;;;16.70;99.90;;;;;;4979786;28;20046;-86
2023/08/01 01:12:59;;;;;;;11.88;4.97;;;16.80;99.90;;;;;;4963895;28;20034;-87
2023/08/01 01:15:25;;;;;;;13.65;8.27;;;16.70;99.90;;;;;;4980367;28;20101;-87
2023/08/01 01:17:51;;;;;;;15.27;8.27;;;16.80;99.90;;;;;;4964166;28;20034;-87
2023/08/01 01:20:27;;;;;;;15.07;8.35;;;16.70;99.90;;;;;;4979985;28;20508;-87
2023/08/01 01:22:54;;;;;;;11.00;4.55;;;16.80;99.90;;;;;;4980515;28;20034;-87
2023/08/01 01:25:21;;;;;;;13.23;8.07;;;16.70;99.90;;;;;;4979335;28;20042;-87
2023/08/01 01:27:49;;;;;;;12.55;5.18;;;16.70;99.90;;;;;;4978971;28;20080;-87
2023/08/01 01:30:15;;;;;;;11.35;6.32;;;16.60;99.90;;;;;;4979956;28;20045;-87
2023/08/01 01:32:42;;;;;;;13.82;9.20;;;16.60;99.90;;;;;;4980863;28;20455;-87
2023/08/01 01:35:07;;;;;;;15.50;9.38;;;16.70;99.90;;;;;;4963580;28;20427;-86
2023/08/01 01:37:33;;;;;;;11.68;5.85;;;16.70;99.90;;;;;;4978719;28;20042;-86
2023/08/01 01:40:00;;;;;;;16.17;9.57;;;16.70;99.90;;;;;;4980407;28;20042;-87
2023/08/01 01:42:25;;;;;;;14.50;5.50;;;16.70;99.90;;;;;;4979980;28;20042;-87
2023/08/01 01:44:51;;;;;;;16.98;10.38;;;16.60;99.90;;;;;;4963856;28;20038;-87
2023/08/01 01:47:17;;;;;;;15.30;11.00;;;16.60;99.90;;;;;;4980236;28;20495;-87
2023/08/01 01:49:43;;;;;;;15.00;5.63;;;16.60;99.90;;;;;;4980226;28;20452;-86
2023/08/01 01:52:08;;;;;;;16.70;10.88;;;16.60;99.90;;;;;;4980029;28;20053;-87
2023/08/01 01:54:34;;;;;;;16.63;10.80;;;16.60;99.90;;;;;;4980663;28;20128;-86
2023/08/01 01:56:59;;;;;;;15.10;11.15;;;16.60;99.90;;;;;;4980109;28;20530;-87
2023/08/01 01:59:25;;;;;;;16.73;11.93;;;16.70;99.90;;;;;;4963923;28;20416;-87
2023/08/01 02:01:51;;;;;;;14.90;7.07;;;16.60;99.90;;;;;;4963917;28;20042;-87
2023/08/01 02:04:16;;;;;;;15.90;11.52;;;16.60;99.90;;;;;;4963457;28;20041;-87
2023/08/01 02:06:42;;;;;;;11.80;6.20;;;16.60;99.90;;;;;;4979292;28;20042;-87
2023/08/01 02:09:08;;;;;;;17.55;10.52;;;16.50;99.90;;;;;;4980124;28;20050;-87
2023/08/01 02:11:33;;;;;;;15.27;10.68;;;16.50;99.90;;;;;;4980465;28;20092;-86
2023/08/01 02:13:59;;;;;;;17.55;6.60;;;16.50;99.90;;;;;;4980392;28;20034;-86
2023/08/01 02:16:24;;;;;;;15.40;10.65;;;16.50;99.90;;;;;;4979523;28;20419;-87
2023/08/01 02:18:50;;;;;;;12.88;10.02;;;16.50;99.90;;;;;;4959723;28;20397;-87
2023/08/01 02:21:15;;;;;;;14.82;9.70;;;16.50;99.90;;;;;;4960703;28;20050;-87
2023/08/01 02:23:41;;;;;;;15.10;6.00;;;16.40;99.90;;;;;;4994231;28;20054;-87
2023/08/01 02:26:08;;;;;;;15.32;9.82;;;16.40;99.90;;;;;;4976512;28;20511;-86
2023/08/01 02:28:33;;;;;;;16.20;10.25;;;16.40;99.90;;;;;;4993762;28;20419;-86
2023/08/01 02:30:59;;;;;;;15.65;10.15;;;16.30;99.90;;;;;;4994109;28;20038;-86
2023/08/01 02:33:24;;;;;;;13.30;9.88;;;16.30;99.90;;;;;;4960846;28;20065;-86
2023/08/01 02:35:50;;;;;;;13.13;5.68;;;16.30;99.90;;;;;;4977074;28;20073;-86
2023/08/01 02:38:16;;;;;;;15.18;9.13;;;16.20;99.90;;;;;;4975885;28;20046;-87
2023/08/01 02:40:41;;;;;;;18.45;9.73;;;16.20;99.90;;;;;;4976500;28;20128;-86
2023/08/01 02:43:07;;;;;;;13.65;8.50;;;16.20;99.90;;;;;;4976201;28;20467;-86
2023/08/01 02:45:32;;;;;;;13.57;9.45;;;16.20;99.90;;;;;;4976368;28;20042;-86
2023/08/01 02:47:58;;;;;;;12.55;5.15;;;16.20;99.90;;;;;;4976256;28;20046;-85
2023/08/01 02:50:23;;;;;;;10.85;4.53;;;16.10;99.90;;;;;;4960441;28;20045;-86
2023/08/01 02:52:49;;;;;;;14.65;9.55;;;16.10;99.90;;;;;;4960525;28;20096;-86
2023/08/01 02:55:14;;;;;;;14.45;8.60;;;16.10;99.90;;;;;;4976537;28;20415;-86
2023/08/01 02:57:40;;;;;;;13.70;8.73;;;16.10;99.90;;;;;;4959832;28;20093;-85
2023/08/01 03:00:11;;;;;;;12.70;5.22;;;16.10;99.90;;;;;;4959798;28;20172;-86
2023/08/01 03:02:39;;;;;;;12.00;4.03;;;16.10;99.90;;;;;;4976058;28;20542;-86
2023/08/01 03:05:07;;;;;;;16.73;8.00;;;16.00;99.90;;;;;;4959663;28;20042;-86
2023/08/01 03:07:33;;;;;;;14.55;7.80;;;16.10;99.90;;;;;;4959787;28;20042;-86
2023/08/01 03:09:58;;;;;;;16.17;5.20;;;16.10;99.90;;;;;;4976249;28;20046;-86
2023/08/01 03:12:24;;;;;;;10.82;4.60;;;16.00;99.90;;;;;;4960496;28;20038;-86
2023/08/01 03:14:50;;;;;;;14.52;7.50;;;16.00;99.90;;;;;;4960286;28;20038;-86
2023/08/01 03:17:16;;;;;;;14.15;6.93;;;16.00;99.90;;;;;;4975038;28;20056;-86
2023/08/01 03:19:42;;;;;;;12.95;7.32;;;16.00;99.90;;;;;;4975619;28;20057;-86
2023/08/01 03:22:09;;;;;;;12.63;3.58;;;16.00;99.90;;;;;;4975609;28;20126;-86
2023/08/01 03:24:34;;;;;;;12.40;3.90;;;16.00;99.90;;;;;;4959773;28;20045;-86
2023/08/01 03:27:00;;;;;;;10.60;4.85;;;15.90;99.90;;;;;;4959100;28;20042;-86
2023/08/01 03:29:26;;;;;;;15.68;7.82;;;15.90;99.90;;;;;;4958582;28;20054;-86
2023/08/01 03:31:52;;;;;;;14.90;7.57;;;15.90;99.90;;;;;;4975743;28;20043;-86
2023/08/01 03:34:18;;;;;;;15.40;7.35;;;15.90;99.90;;;;;;4976293;28;20124;-86
2023/08/01 03:36:44;;;;;;;10.07;4.28;;;15.90;99.90;;;;;;4975570;28;20085;-87
2023/08/01 03:39:10;;;;;;;14.85;7.25;;;15.90;99.90;;;;;;4959056;28;20030;-86
2023/08/01 03:41:37;;;;;;;14.45;7.20;;;15.80;99.90;;;;;;4959126;28;20035;-87
2023/08/01 03:44:03;;;;;;;8.75;3.67;;;15.90;99.90;;;;;;4975720;28;20042;-86
2023/08/01 03:46:28;;;;;;;9.52;4.18;;;15.80;99.90;;;;;;4959062;28;20036;-85
2023/08/01 03:48:54;;;;;;;10.52;4.15;;;15.80;99.90;;;;;;4959771;28;20039;-86
2023/08/01 03:51:20;;;;;;;16.42;7.63;;;15.70;99.90;;;;;;4975701;28;20046;-85
2023/08/01 03:53:46;;;;;;;12.40;3.95;;;15.70;99.90;;;;;;4959340;28;20046;-86
2023/08/01 03:56:12;;;;;;;10.85;3.58;;;15.70;99.90;;;;;;4975571;28;20050;-87
2023/08/01 03:58:37;;;;;;;8.70;3.97;;;15.70;99.90;;;;;;4957955;28;20574;-86
2023/08/01 04:01:03;;;;;;;14.13;6.95;;;15.70;99.90;;;;;;4974866;28;20081;-87
2023/08/01 04:03:28;;;;;;;9.65;3.88;;;15.70;99.90;;;;;;4975409;28;20495;-87
2023/08/01 04:05:54;;;;;;;11.57;4.65;;;15.70;99.90;;;;;;4958969;28;20084;-87
2023/08/01 04:08:20;;;;;;;14.63;6.68;;;15.70;99.90;;;;;;4974947;28;20526;-86
2023/08/01 04:10:45;;;;;;;15.13;6.40;;;15.80;99.90;;;;;;4975066;28;20049;-86
2023/08/01 04:13:11;;;;;;;10.38;3.47;;;15.80;99.90;;;;;;4975123;28;20045;-86
2023/08/01 04:15:37;;;;;;;10.95;4.97;;;15.70;99.90;;;;;;4975273;28;20132;-86
2023/08/01 04:18:02;;;;;;;10.68;4.28;;;15.70;99.90;;;;;;4958927;28;20041;-86
2023/08/01 04:20:28;;;;;;;7.93;2.47;;;15.70;99.90;;;;;;4958562;28;20049;-86
2023/08/01 04:22:54;;;;;;;10.88;5.55;;;15.70;99.90;;;;;;4974598;28;20038;-86
2023/08/01 04:25:19;;;;;;;8.65;3.03;;;15.70;99.90;;;;;;4974651;28;20407;-86
2023/08/01 04:27:45;;;;;;;10.70;3.17;;;15.70;99.90;;;;;;4973653;28;20042;-86
2023/08/01 04:30:11;;;;;;;10.55;4.43;;;15.70;99.90;;;;;;4974851;28;20042;-86
2023/08/01 04:32:37;;;;;;;7.30;2.75;;;15.70;99.90;;;;;;4975061;28;20474;-86
2023/08/01 04:35:03;;;;;;;7.40;2.42;;;15.70;99.90;;;;;;4974723;28;20567;-86
2023/08/01 04:37:28;;;;;;;3.78;1.15;;;15.60;99.90;;;;;;4974301;28;20038;-86
2023/08/01 04:39:54;;;;;;;7.65;3.00;;;15.60;99.90;;;;;;4973733;28;20046;-86
2023/08/01 04:42:19;;;;;;;8.73;3.38;;;15.50;99.90;;;;;;4958138;28;20040;-87
2023/08/01 04:44:45;;;;;;;7.72;2.45;;;15.60;99.90;;;;;;4958526;28;20049;-86
2023/08/01 04:47:11;;;;;;;7.97;2.78;;;15.60;99.90;;;;;;4958452;28;20572;-86
2023/08/01 04:49:36;;;;;;;7.60;2.22;;;15.50;99.90;;;;;;4974768;28;20090;-86
2023/08/01 04:52:02;;;;;;;7.53;2.92;;;15.50;99.90;;;;;;4974601;28;20042;-87
2023/08/01 04:54:28;;;;;;;8.90;3.92;;;15.50;99.90;;;;;;4958792;28;20034;-87
2023/08/01 04:56:53;;;;;;;7.88;2.63;;;15.60;99.90;;;;;;4974366;28;20404;-87
2023/08/01 04:59:19;;;;;;;6.88;2.15;;;15.50;99.90;;;;;;4957979;28;20246;-86
2023/08/01 05:01:45;;;;;;;8.60;4.00;;;15.50;99.90;;;;;;4974433;28;20064;-86
2023/08/01 05:04:11;;;;;;;8.63;3.17;;;15.50;99.90;;;;;;4974495;28;20045;-87
2023/08/01 05:06:36;;;;;;;7.57;2.53;;;15.50;99.90;;;;;;4973487;28;20042;-86
2023/08/01 05:09:02;;;;;;;5.18;1.83;;;15.60;99.90;;;;;;4958369;28;20470;-86
2023/08/01 05:11:28;;;;;;;8.73;3.28;;;15.60;99.90;;;;;;4958219;28;20042;-86
2023/08/01 05:13:54;;;;;;;8.90;3.45;;;15.60;99.90;;;;;;4958443;28;20046;-87
2023/08/01 05:16:19;;;;;;;8.70;2.72;;;15.70;99.90;;;;;;4958087;28;20038;-86
2023/08/01 05:18:45;;;;;;;9.00;3.20;;;15.70;99.90;;;;;;4973890;28;20042;-87
2023/08/01 05:21:10;;;;;;;7.93;1.73;;;15.80;99.90;;;;;;4973761;28;20039;-86
2023/08/01 05:23:36;;;;;;;5.68;2.03;;;15.70;99.90;;;;;;4973770;28;20122;-86
2023/08/01 05:26:02;;;;;;;8.20;3.13;;;15.70;99.90;;;;;;4973263;28;20411;-86
2023/08/01 05:28:28;;;;;;;9.45;3.30;;;15.80;99.90;;;;;;4973730;28;20046;-86
2023/08/01 05:30:53;;;;;;;7.63;2.13;;;15.80;99.90;;;;;;4974159;28;20050;-86
2023/08/01 05:33:19;;;;;;;5.93;1.83;;;15.80;99.90;;;;;;4958026;28;20045;-86
2023/08/01 05:35:45;;;;;;;10.60;3.35;;;15.80;99.90;;;;;;4958334;28;20049;-86
2023/08/01 05:38:10;;;;;;;8.95;3.20;;;15.70;99.90;;;;;;4957283;28;20561;-87
2023/08/01 05:40:45;;;;;;;9.82;3.67;;;15.80;99.90;;;;;;4962479;28;20121;-86
2023/08/01 05:43:14;;;;;;;8.40;1.95;;;15.80;99.90;;;;;;4990611;28;20060;-86
2023/08/01 05:45:39;;;;;;;5.85;1.90;;;15.70;99.90;;;;;;4977030;28;20042;-86
2023/08/01 05:48:05;;;;;;;9.93;3.40;;;15.70;99.90;;;;;;5010785;28;20121;-86
2023/08/01 05:50:31;;;;;;;10.35;3.30;;;15.70;99.90;;;;;;4993680;28;20046;-86
2023/08/01 05:52:56;;;;;;;10.40;3.67;;;15.70;99.90;;;;;;4996397;28;20406;-86
2023/08/01 05:55:22;;;;;;;9.07;2.05;;;15.70;99.90;;;;;;4996403;28;20053;-86
2023/08/01 05:57:52;;;;;;;6.32;2.08;;;15.70;99.90;;;;;;4996953;28;20041;-87
2023/08/01 06:00:21;;;;;;;6.30;2.03;;;15.60;99.90;;;;;;5008066;28;20041;-85
2023/08/01 06:02:47;;;;;;;7.13;3.08;;;15.60;99.90;;;;;;5015097;28;20406;-86
2023/08/01 06:05:13;;;;;;;9.10;3.40;;;15.70;99.90;;;;;;4997573;28;20068;-86
2023/08/01 06:07:39;;;;;;;9.80;3.47;;;15.70;99.90;;;;;;4983271;28;20038;-86
2023/08/01 06:10:05;;;;;;;7.55;3.10;;;15.80;99.90;;;;;;5008037;28;20169;-86
2023/08/01 06:12:31;;;;;;;8.18;2.90;;;15.70;99.90;;;;;;4997552;28;20482;-86
2023/08/01 06:14:56;;;;;;;6.05;1.98;;;15.70;99.90;;;;;;4997518;28;20038;-86
2023/08/01 06:17:22;;;;;;;5.10;1.90;;;15.70;99.90;;;;;;4997107;28;20498;-86
2023/08/01 06:19:49;;;;;;;7.80;2.05;;;15.60;99.90;;;;;;4996402;28;20116;-85
2023/08/01 06:22:15;;;;;;;6.10;1.42;;;15.60;99.90;;;;;;4980403;28;20492;-86
2023/08/01 06:24:41;;;;;;;9.25;3.28;;;15.50;99.90;;;;;;4979627;28;20507;-86
2023/08/01 06:27:06;;;;;;;7.93;3.25;;;15.60;99.90;;;;;;4995804;28;20037;-86
2023/08/01 06:29:32;;;;;;;6.35;1.58;;;15.50;99.90;;;;;;4980246;28;20038;-86
2023/08/01 06:31:57;;;;;;;9.52;3.80;;;15.60;99.90;;;;;;4996036;28;20453;-87
2023/08/01 06:34:24;;;;;;;10.25;4.00;;;15.60;99.90;;;;;;4980484;28;20045;-87
2023/08/01 06:36:50;;;;;;;10.88;4.68;;;15.60;99.90;;;;;;4979966;28;20486;-86
2023/08/01 06:39:16;;;;;;;7.07;2.38;;;15.70;99.90;;;;;;4996174;28;20052;-87
2023/08/01 06:41:41;;;;;;;7.10;2.95;;;15.70;99.90;;;;;;4995860;28;20044;-87
2023/08/01 06:44:07;;;;;;;7.90;3.10;;;15.70;99.90;;;;;;4980294;28;20046;-87
2023/08/01 06:46:32;;;;;;;8.57;3.08;;;15.70;99.90;;;;;;4996038;28;20037;-87
2023/08/01 06:48:58;;;;;;;11.93;5.72;;;15.70;99.90;;;;;;4979893;28;20461;-87
2023/08/01 06:51:23;;;;;;;11.20;5.88;;;15.90;99.90;;;;;;4996048;28;20052;-86
2023/08/01 06:53:49;;;;;;;9.05;3.15;;;16.00;99.90;;;;;;4995946;28;20080;-87
2023/08/01 06:56:15;;;;;;;5.57;2.17;;;16.00;99.90;;;;;;4979428;28;20485;-85
2023/08/01 06:58:40;;;;;;;7.55;2.33;;;16.00;99.90;;;;;;4979634;28;20050;-86
2023/08/01 07:01:06;;;;;;;8.30;2.67;;;16.00;99.90;;;;;;4994951;28;20499;-86
2023/08/01 07:03:31;;;;;;;7.93;3.47;;;16.00;99.90;;;;;;4978713;28;20038;-86
2023/08/01 07:05:57;;;;;;;8.43;3.33;;;16.00;99.90;;;;;;4995793;28;20559;-87
2023/08/01 07:08:23;;;;;;;6.93;2.53;;;16.20;99.90;;;;;;4995610;28;20048;-87
2023/08/01 07:10:49;;;;;;;9.10;3.78;;;16.20;99.90;;;;;;4995898;28;20125;-86
2023/08/01 07:13:16;;;;;;;9.73;3.97;;;16.20;99.90;;;;;;4978584;28;20033;-86
2023/08/01 07:15:42;;;;;;;5.97;2.45;;;16.30;99.90;;;;;;4979365;28;20052;-87
2023/08/01 07:18:07;;;;;;;7.38;2.55;;;16.30;99.90;;;;;;4995381;28;20046;-87
2023/08/01 07:20:33;;;;;;;6.72;2.30;;;16.30;99.90;;;;;;4995447;28;20100;-86
2023/08/01 07:22:58;;;;;;;10.77;4.70;;;16.30;99.90;;;;;;4995562;28;20041;-87
2023/08/01 07:25:25;;;;;;;9.52;4.00;;;16.30;99.90;;;;;;4979084;28;20041;-87
2023/08/01 07:27:51;;;;;;;10.38;4.43;;;16.40;99.90;;;;;;4994738;28;20558;-87
2023/08/01 07:30:17;;;;;;;8.75;3.75;;;16.50;99.90;;;;;;4979748;28;20107;-87
2023/08/01 07:32:43;;;;;;;10.00;3.55;;;16.50;99.90;;;;;;4995441;28;20073;-87
2023/08/01 07:35:09;;;;;;;7.95;3.50;;;16.50;99.90;;;;;;4995691;28;20095;-87
2023/08/01 07:37:37;;;;;;;8.18;2.92;;;16.60;99.90;;;;;;4978887;28;20034;-87
2023/08/01 07:40:05;;;;;;;10.88;2.83;;;16.60;99.90;;;;;;4995012;28;20046;-88
2023/08/01 07:42:30;;;;;;;8.15;2.88;;;16.70;99.90;;;;;;4994859;28;20044;-87
2023/08/01 07:44:56;;;;;;;5.38;1.50;;;16.70;99.90;;;;;;4979135;28;20042;-87
2023/08/01 07:47:23;;;;;;;6.38;1.92;;;16.70;99.90;;;;;;4978210;28;20038;-87
2023/08/01 07:49:49;;;;;;;7.97;2.85;;;16.60;99.90;;;;;;4978949;28;20044;-87
2023/08/01 07:52:15;;;;;;;7.47;2.63;;;16.70;99.90;;;;;;4995105;28;20037;-87
2023/08/01 07:54:41;;;;;;;10.52;3.17;;;16.80;99.90;;;;;;4995388;28;20084;-87
2023/08/01 07:57:06;;;;;;;7.10;2.08;;;16.80;99.90;;;;;;4994244;28;20042;-87
2023/08/01 07:59:32;;;;;;;9.32;3.13;;;16.80;99.90;;;;;;4994764;28;20087;-86
2023/08/01 08:01:57;;;;;;;7.30;1.95;;;16.80;99.90;;;;;;4994273;28;20037;-86
2023/08/01 08:04:23;;;;;;;8.50;3.30;;;16.80;99.90;;;;;;4994389;28;20077;-86
2023/08/01 08:06:49;;;;;;;8.43;2.88;;;16.80;99.90;;;;;;4994802;28;20042;-87
2023/08/01 08:09:14;;;;;;;8.45;2.80;;;16.80;99.90;;;;;;4994261;28;20125;-86
2023/08/01 08:11:40;;;;;;;7.15;2.08;;;16.80;99.90;;;;;;4994598;28;20415;-87
2023/08/01 08:14:05;;;;;;;6.13;2.03;;;16.70;99.90;;;;;;4994407;28;20038;-86
2023/08/01 08:16:31;;;;;;;9.35;3.20;;;16.60;99.90;;;;;;4993586;28;20485;-87
2023/08/01 08:18:57;;;;;;;5.72;2.10;;;16.60;99.90;;;;;;4978281;28;20045;-86
2023/08/01 08:21:22;;;;;;;7.47;1.98;;;16.60;99.90;;;;;;4977963;28;20037;-86
2023/08/01 08:23:48;;;;;;;8.93;3.22;;;16.50;99.90;;;;;;4994348;28;20034;-86
2023/08/01 08:26:13;;;;;;;9.43;3.13;;;16.60;99.90;;;;;;4994123;28;20677;-86
2023/08/01 08:28:41;;;;;;;8.50;3.00;;;16.60;99.90;;;;;;4994293;28;20088;-87
2023/08/01 08:31:07;;;;;;;6.85;2.10;;;16.60;99.90;;;;;;4994385;28;20494;-88
2023/08/01 08:33:33;;;;;;;9.05;3.22;;;16.50;99.90;;;;;;4977785;28;20042;-86
2023/08/01 08:35:59;;;;;;;4.18;1.55;;;16.50;99.90;;;;;;4994071;28;20038;-86
2023/08/01 08:38:53;;;;;;;8.57;2.80;;;16.50;99.90;;;;;;4982365;28;20053;-86
2023/08/01 08:41:25;;;;;;;5.35;1.70;;;16.50;99.90;;;;;;4998112;28;20055;-86
2023/08/01 08:43:57;;;;;;;8.50;2.65;;;16.50;99.90;;;;;;4974088;28;20038;-87
2023/08/01 08:46:27;;;;;;;6.85;2.20;;;16.40;99.90;;;;;;4957916;28;20037;-85
2023/08/01 08:48:54;;;;;;;7.82;3.08;;;16.40;99.90;;;;;;4958040;28;20039;-86
2023/08/01 08:51:21;;;;;;;6.35;1.88;;;16.40;99.90;;;;;;4975215;28;20407;-86
2023/08/01 08:53:48;;;;;;;8.98;3.20;;;16.40;99.90;;;;;;4976944;28;20410;-87
2023/08/01 08:56:15;;;;;;;10.90;3.25;;;16.40;99.90;;;;;;4967996;28;20118;-87
2023/08/01 08:58:42;;;;;;;5.47;2.20;;;16.50;99.90;;;;;;4982679;28;20422;-86
2023/08/01 09:01:08;;;;;;;10.40;3.58;;;16.60;99.90;;;;;;4975563;28;20399;-86
2023/08/01 09:03:34;;;;;;;9.65;3.60;;;16.60;99.90;;;;;;4984286;28;20415;-86
2023/08/01 09:06:11;;;;;;;10.50;3.83;;;16.70;99.90;;;;;;4982674;28;20821;-87
2023/08/01 09:08:39;;;;;;;10.23;2.63;;;16.80;99.90;;;;;;4966174;28;20045;-87
2023/08/01 09:11:05;;;;;;;11.55;3.78;;;16.80;99.90;;;;;;4968612;28;20049;-86
2023/08/01 09:13:31;;;;;;;8.43;2.75;;;16.80;99.90;;;;;;4958299;28;20038;-87
2023/08/01 09:16:00;;;;;;;12.32;4.20;;;16.90;99.90;;;;;;4974369;28;20081;-87
2023/08/01 09:18:25;;;;;;;11.82;4.38;;;16.90;99.90;;;;;;4974257;28;20117;-87
2023/08/01 09:20:51;;;;;;;7.45;2.33;;;16.90;99.90;;;;;;4973882;28;20181;-86
2023/08/01 09:23:17;;;;;;;11.00;3.55;;;16.90;99.90;;;;;;4973811;28;20084;-86
2023/08/01 09:25:44;;;;;;;10.55;3.55;;;16.90;99.90;;;;;;4958188;28;20054;-86
2023/08/01 09:28:20;;;;;;;8.55;2.15;;;16.90;99.90;;;;;;4976518;28;20555;-87
2023/08/01 09:30:51;;;;;;;9.50;3.22;;;16.80;99.90;;;;;;4987999;28;20042;-86
2023/08/01 09:33:17;;;;;;;11.10;3.35;;;16.70;99.90;;;;;;4986398;28;20098;-87
2023/08/01 09:35:45;;;;;;;6.60;1.83;;;16.60;99.90;;;;;;4988327;28;20084;-87
2023/08/01 09:38:13;;;;;;;9.90;3.35;;;16.50;99.90;;;;;;4971781;28;20038;-86
2023/08/01 09:40:40;;;;;;;9.63;2.92;;;16.50;99.90;;;;;;4969663;28;20042;-87
2023/08/01 09:43:06;;;;;;;6.47;1.85;;;16.40;99.90;;;;;;4968954;28;20406;-86
2023/08/01 09:45:32;;;;;;;11.20;3.10;;;16.40;99.90;;;;;;4977553;28;20049;-86
2023/08/01 09:47:57;;;;;;;9.50;2.58;;;16.40;99.90;;;;;;4988563;28;20042;-86
2023/08/01 09:50:24;;;;;;;8.50;1.75;;;16.40;99.90;;;;;;4988397;28;20048;-87
2023/08/01 09:52:52;;;;;;;5.43;1.83;;;16.30;99.90;;;;;;4970123;28;20547;-87
2023/08/01 09:55:25;;;;;;;8.65;2.63;;;16.20;99.90;;;;;;4970819;28;20516;-87
2023/08/01 09:57:53;;;;;;;6.45;1.95;;;16.20;99.90;;;;;;4987953;28;20077;-87
2023/08/01 10:00:18;;;;;;;10.48;3.05;;;16.20;99.90;;;;;;4987303;28;20472;-88
2023/08/01 10:02:45;;;;;;;8.23;2.45;;;16.20;99.90;;;;;;4988075;28;20042;-87
2023/08/01 10:05:12;;;;;;;6.40;2.72;;;16.20;99.90;;;;;;4985878;28;20076;-87
2023/08/01 10:07:40;;;;;;;11.45;3.92;;;16.10;99.90;;;;;;4969723;28;20042;-87
2023/08/01 10:10:06;;;;;;;7.78;2.42;;;16.20;99.90;;;;;;4987684;28;20041;-87
2023/08/01 10:12:33;;;;;;;9.20;3.67;;;16.20;99.90;;;;;;4970147;28;20423;-87
2023/08/01 10:14:59;;;;;;;8.15;2.45;;;16.30;99.90;;;;;;4986362;28;20129;-87
2023/08/01 10:17:26;;;;;;;11.77;4.18;;;16.40;99.90;;;;;;4971353;28;20485;-87
2023/08/01 10:19:55;;;;;;;12.25;4.38;;;16.40;99.90;;;;;;4984269;28;20038;-87
2023/08/01 10:22:22;;;;;;;13.77;4.50;;;16.50;99.90;;;;;;4971214;28;20476;-87
2023/08/01 10:24:48;;;;;;;14.02;3.00;;;16.60;99.90;;;;;;4969086;28;20045;-87
2023/08/01 10:27:21;;;;;;;11.35;3.92;;;16.60;99.90;;;;;;4986715;28;20414;-86
2023/08/01 10:29:57;;;;;;;11.45;4.10;;;16.70;99.90;;;;;;4984963;28;20045;-87
2023/08/01 10:32:33;;;;;;;10.70;4.38;;;16.80;99.90;;;;;;4985871;28;20046;-87
2023/08/01 10:35:02;;;;;;;10.82;3.00;;;16.90;99.90;;;;;;5017937;28;20145;-86
2023/08/01 10:37:39;;;;;;;11.13;3.70;;;17.00;99.90;;;;;;4977334;28;20041;-87
2023/08/01 10:40:06;;;;;;;9.80;3.60;;;17.00;99.90;;;;;;4968680;28;20049;-87
2023/08/01 10:42:43;;;;;;;7.68;2.45;;;17.10;99.90;;;;;;4970716;28;20041;-87
2023/08/01 10:45:21;;;;;;;7.63;2.47;;;17.00;99.90;;;;;;4971853;28;20045;-87
2023/08/01 10:47:48;;;;;;;8.15;2.85;;;17.00;99.90;;;;;;4968540;28;20031;-87
2023/08/01 10:50:15;;;;;;;6.32;1.75;;;16.90;99.90;;;;;;4986506;28;20038;-87
2023/08/01 10:52:41;;;;;;;8.75;2.67;;;17.00;99.90;;;;;;4987519;28;20050;-86
2023/08/01 10:55:07;;;;;;;11.52;3.10;;;17.00;99.90;;;;;;4987606;28;20041;-86
2023/08/01 10:57:36;;;;;;;9.60;2.17;;;17.20;99.90;;;;;;4985957;28;20046;-87
2023/08/01 11:00:04;;;;;;;8.80;2.80;;;17.30;99.90;;;;;;4990740;28;20451;-86
2023/08/01 11:02:30;;;;;;;9.77;2.90;;;17.50;99.90;;;;;;4996234;28;20045;-86
2023/08/01 11:05:04;;;;;;;7.55;2.13;;;17.70;99.90;;;;;;4979870;28;20053;-87
2023/08/01 11:07:29;;;;;;;8.93;2.58;;;17.80;99.90;;;;;;4970800;28;20615;-87
2023/08/01 11:10:09;;;;;;;10.02;2.92;;;17.80;99.90;;;;;;5018030;28;20129;-87
2023/08/01 11:12:40;;;;;;;8.57;2.10;;;17.80;99.90;;;;;;4981576;28;20419;-86
2023/08/01 11:15:08;;;;;;;8.93;2.42;;;17.70;99.90;;;;;;4981051;28;20050;-86
2023/08/01 11:17:51;;;;;;;7.18;2.20;;;17.50;99.90;;;;;;4976692;28;20184;-86
2023/08/01 11:20:18;;;;;;;7.90;2.45;;;17.40;99.90;;;;;;4984213;28;20069;-87
2023/08/01 11:23:00;;;;;;;8.48;2.40;;;17.30;99.90;;;;;;4968831;28;20491;-86
2023/08/01 11:25:37;;;;;;;4.25;1.50;;;17.20;99.90;;;;;;4985577;28;20377;-87
2023/08/01 11:28:11;;;;;;;7.72;2.00;;;17.00;99.90;;;;;;4975756;28;20109;-86
2023/08/01 11:30:37;;;;;;;9.35;2.08;;;16.90;99.90;;;;;;4976055;28;20053;-86
2023/08/01 11:33:13;;;;;;;8.05;2.00;;;16.90;99.90;;;;;;4985999;28;20038;-86
2023/08/01 11:35:40;;;;;;;6.90;2.13;;;16.90;99.90;;;;;;4970241;28;20521;-86
2023/08/01 11:38:06;;;;;;;7.93;2.08;;;16.90;99.90;;;;;;4984804;28;20501;-86
2023/08/01 11:40:32;;;;;;;8.23;1.80;;;16.90;99.90;;;;;;4970921;28;20129;-86
2023/08/01 11:42:58;;;;;;;8.50;2.33;;;17.10;99.90;;;;;;4984038;28;20054;-86
2023/08/01 11:45:24;;;;;;;7.53;2.20;;;17.30;99.90;;;;;;4985156;28;20101;-86
2023/08/01 11:47:50;;;;;;;10.43;2.80;;;17.40;99.90;;;;;;4967922;28;20037;-86
2023/08/01 11:50:25;;;;;;;9.18;2.25;;;17.70;99.90;;;;;;4967138;28;20049;-86
2023/08/01 11:52:51;;;;;;;9.05;2.10;;;17.90;99.90;;;;;;4958018;28;20073;-85
2023/08/01 11:55:26;;;;;;;9.88;1.77;;;18.00;99.90;;;;;;4956583;28;20054;-86
2023/08/01 11:57:57;;;;;;;9.68;2.63;;;18.00;99.90;;;;;;4973019;28;20043;-87
2023/08/01 12:00:27;;;;;;;8.60;2.50;;;18.00;99.90;;;;;;4956721;28;20642;-86
2023/08/01 12:03:04;;;;;;;8.55;2.17;;;18.00;99.90;;;;;;4972790;28;20069;-87
2023/08/01 12:05:30;;;;;;;7.80;1.63;;;18.10;99.90;;;;;;4975022;28;20034;-87
2023/08/01 12:07:56;;;;;;;10.20;2.65;;;18.20;99.90;;;;;;4975392;28;20034;-86
2023/08/01 12:10:22;;;;;;;9.27;2.40;;;18.30;99.90;;;;;;4975481;28;20038;-86
2023/08/01 12:12:48;;;;;;;10.55;2.47;;;18.40;99.90;;;;;;4975205;28;20475;-86
2023/08/01 12:15:15;;;;;;;9.20;2.40;;;18.70;99.90;;;;;;4959600;28;20133;-86
2023/08/01 12:17:41;;;;;;;10.85;2.40;;;19.00;99.90;;;;;;4975592;28;20580;-87
2023/08/01 12:20:07;;;;;;;9.52;2.25;;;19.10;99.90;;;;;;4959529;28;20678;-85
2023/08/01 12:22:33;;;;;;;8.35;2.20;;;19.00;99.90;;;;;;4975159;28;20046;-86
2023/08/01 12:24:58;;;;;;;8.07;2.20;;;18.90;99.90;;;;;;4958545;28;20125;-86
2023/08/01 12:27:24;;;;;;;7.80;2.13;;;18.70;99.90;;;;;;4973216;28;20714;-87
2023/08/01 12:29:49;;;;;;;9.25;2.42;;;18.70;99.90;;;;;;4958466;28;20041;-86
2023/08/01 12:32:15;;;;;;;9.75;2.63;;;18.50;99.90;;;;;;4958814;28;20088;-86
2023/08/01 12:34:41;;;;;;;8.82;2.08;;;18.40;99.90;;;;;;4959536;28;20042;-86
2023/08/01 12:37:06;;;;;;;8.90;2.35;;;18.30;99.90;;;;;;4975021;28;20074;-86
2023/08/01 12:39:32;;;;;;;9.18;2.25;;;18.30;99.90;;;;;;4959013;28;20042;-86